createdAt,value
2023-04-22T00:00:05.555Z,11.30
2023-04-22T00:01:05.584Z,11.10
2023-04-22T00:02:05.635Z,10.60
2023-04-22T00:03:05.589Z,11.20
2023-04-22T00:04:05.764Z,11.10
2023-04-22T00:05:05.706Z,9.80
2023-04-22T00:06:05.453Z,9.50
2023-04-22T00:07:05.488Z,10.50
2023-04-22T00:08:05.444Z,9.40
2023-04-22T00:09:05.452Z,10.00
2023-04-22T00:10:05.417Z,11.20
2023-04-22T00:11:05.418Z,10.50
2023-04-22T00:12:05.394Z,8.80
2023-04-22T00:13:05.382Z,9.00
2023-04-22T00:14:05.362Z,9.20
2023-04-22T00:15:05.355Z,9.20
2023-04-22T00:16:05.370Z,9.00
2023-04-22T00:17:05.368Z,8.80
2023-04-22T00:18:05.311Z,8.60
2023-04-22T00:19:05.307Z,6.40
2023-04-22T00:20:05.286Z,6.00
2023-04-22T00:21:05.299Z,6.30
2023-04-22T00:22:05.246Z,6.50
2023-04-22T00:23:05.282Z,6.60
2023-04-22T00:24:05.223Z,6.20
2023-04-22T00:25:05.236Z,6.60
2023-04-22T00:26:05.180Z,6.00
2023-04-22T00:27:05.201Z,6.20
2023-04-22T00:28:05.172Z,6.60
2023-04-22T00:29:05.181Z,6.20
2023-04-22T00:30:05.180Z,6.20
2023-04-22T00:31:05.212Z,6.70
2023-04-22T00:32:05.108Z,5.90
2023-04-22T00:33:05.223Z,6.40
2023-04-22T00:34:05.106Z,6.80
2023-04-22T00:35:05.097Z,6.50
2023-04-22T00:36:05.061Z,6.20
2023-04-22T00:37:05.073Z,6.20
2023-04-22T00:38:05.041Z,6.20
2023-04-22T00:39:05.054Z,6.20
2023-04-22T00:40:05.001Z,6.70
2023-04-22T00:41:05.016Z,6.00
2023-04-22T00:42:04.971Z,6.50
2023-04-22T00:43:05.012Z,5.80
2023-04-22T00:44:04.952Z,6.30
2023-04-22T00:45:04.955Z,6.00
2023-04-22T00:46:04.931Z,6.10
2023-04-22T00:47:05.009Z,6.30
2023-04-22T00:48:04.995Z,6.20
2023-04-22T00:49:04.903Z,6.40
2023-04-22T00:50:04.877Z,6.80
2023-04-22T00:51:04.891Z,6.70
2023-04-22T00:52:04.853Z,6.70
2023-04-22T00:53:04.888Z,6.60
2023-04-22T00:54:04.815Z,7.50
2023-04-22T00:55:04.841Z,7.30
2023-04-22T00:56:04.809Z,7.40
2023-04-22T00:57:04.790Z,6.80
2023-04-22T00:58:04.778Z,7.10
2023-04-22T00:59:04.782Z,7.30
2023-04-22T01:00:04.749Z,7.60
2023-04-22T01:01:04.876Z,7.70
2023-04-22T01:02:04.774Z,8.00
2023-04-22T01:03:04.859Z,8.10
2023-04-22T01:04:04.841Z,8.80
2023-04-22T01:05:04.699Z,8.80
2023-04-22T01:06:04.689Z,8.70
2023-04-22T01:07:04.669Z,8.50
2023-04-22T01:08:04.699Z,8.70
2023-04-22T01:09:04.650Z,10.30
2023-04-22T01:10:04.614Z,10.30
2023-04-22T01:11:04.650Z,10.40
2023-04-22T01:12:04.582Z,10.00
2023-04-22T01:13:04.585Z,9.90
2023-04-22T01:14:04.563Z,9.00
2023-04-22T01:15:05.032Z,8.70
2023-04-22T01:16:04.549Z,8.70
2023-04-22T01:17:04.667Z,9.10
2023-04-22T01:18:04.562Z,8.70
2023-04-22T01:19:04.529Z,8.20
2023-04-22T01:20:04.629Z,7.50
2023-04-22T01:21:04.487Z,6.60
2023-04-22T01:22:04.450Z,6.80
2023-04-22T01:23:04.451Z,6.90
2023-04-22T01:24:04.436Z,7.40
2023-04-22T01:25:04.436Z,6.90
2023-04-22T01:26:04.411Z,6.50
2023-04-22T01:27:04.432Z,6.40
2023-04-22T01:28:04.436Z,6.50
2023-04-22T01:29:04.376Z,6.20
2023-04-22T01:30:04.363Z,6.20
2023-04-22T01:31:04.355Z,6.00
2023-04-22T01:32:04.353Z,5.90
2023-04-22T01:33:04.415Z,5.40
2023-04-22T01:34:04.284Z,5.40
2023-04-22T01:35:04.341Z,5.40
2023-04-22T01:36:04.264Z,5.80
2023-04-22T01:37:04.290Z,5.30
2023-04-22T01:38:04.237Z,5.40
2023-04-22T01:39:04.276Z,5.10
2023-04-22T01:40:04.224Z,5.20
2023-04-22T01:41:04.251Z,5.20
2023-04-22T01:42:04.178Z,4.70
2023-04-22T01:43:04.249Z,4.70
2023-04-22T01:44:04.146Z,4.70
2023-04-22T01:45:04.193Z,4.30
2023-04-22T01:46:04.266Z,4.80
2023-04-22T01:47:04.150Z,5.20
2023-04-22T01:48:04.145Z,5.20
2023-04-22T01:49:04.158Z,5.30
2023-04-22T01:50:04.093Z,4.90
2023-04-22T01:51:04.124Z,4.80
2023-04-22T01:52:04.064Z,5.00
2023-04-22T01:53:04.084Z,4.90
2023-04-22T01:54:04.017Z,5.30
2023-04-22T01:55:04.032Z,5.10
2023-04-22T01:56:04.010Z,4.90
2023-04-22T01:57:04.018Z,4.90
2023-04-22T01:58:03.974Z,5.40
2023-04-22T01:59:03.987Z,4.90
2023-04-22T02:00:03.972Z,4.80
2023-04-22T02:01:04.033Z,4.70
2023-04-22T02:02:04.003Z,4.70
2023-04-22T02:03:04.014Z,5.00
2023-04-22T02:04:03.896Z,4.50
2023-04-22T02:05:03.943Z,5.00
2023-04-22T02:06:03.865Z,4.60
2023-04-22T02:07:03.874Z,4.60
2023-04-22T02:08:03.874Z,4.90
2023-04-22T02:09:03.840Z,5.00
2023-04-22T02:10:03.820Z,5.40
2023-04-22T02:11:03.818Z,5.50
2023-04-22T02:12:03.827Z,5.10
2023-04-22T02:13:03.800Z,5.30
2023-04-22T02:14:03.758Z,5.20
2023-04-22T02:15:03.824Z,5.60
2023-04-22T02:16:03.774Z,5.80
2023-04-22T02:17:03.764Z,6.30
2023-04-22T02:18:03.736Z,5.90
2023-04-22T02:19:03.712Z,5.70
2023-04-22T02:20:03.716Z,5.60
2023-04-22T02:21:03.726Z,5.40
2023-04-22T02:22:03.677Z,5.60
2023-04-22T02:23:03.683Z,5.80
2023-04-22T02:24:03.634Z,5.40
2023-04-22T02:25:03.645Z,6.70
2023-04-22T02:26:03.601Z,7.20
2023-04-22T02:27:03.626Z,9.20
2023-04-22T02:28:03.602Z,8.70
2023-04-22T02:29:03.574Z,8.40
2023-04-22T02:30:03.573Z,6.60
2023-04-22T02:31:03.598Z,6.50
2023-04-22T02:32:03.579Z,6.90
2023-04-22T02:33:03.569Z,6.20
2023-04-22T02:34:03.507Z,6.30
2023-04-22T02:35:03.547Z,5.60
2023-04-22T02:36:03.459Z,5.50
2023-04-22T02:37:03.546Z,5.70
2023-04-22T02:38:03.474Z,6.00
2023-04-22T02:39:03.464Z,5.70
2023-04-22T02:40:03.456Z,5.60
2023-04-22T02:41:03.451Z,5.50
2023-04-22T02:42:03.376Z,5.40
2023-04-22T02:43:03.411Z,5.80
2023-04-22T02:44:03.395Z,6.10
2023-04-22T02:45:03.402Z,6.00
2023-04-22T02:46:03.398Z,5.50
2023-04-22T02:47:03.393Z,6.00
2023-04-22T02:48:03.476Z,5.80
2023-04-22T02:49:03.336Z,5.30
2023-04-22T02:50:03.319Z,5.60
2023-04-22T02:51:03.305Z,5.30
2023-04-22T02:52:03.271Z,4.90
2023-04-22T02:53:03.307Z,4.70
2023-04-22T02:54:03.245Z,4.60
2023-04-22T02:55:03.261Z,4.70
2023-04-22T02:56:03.208Z,4.80
2023-04-22T02:57:03.212Z,4.60
2023-04-22T02:58:03.202Z,4.30
2023-04-22T02:59:03.195Z,4.30
2023-04-22T03:00:03.151Z,4.20
2023-04-22T03:01:03.226Z,4.00
2023-04-22T03:02:05.951Z,4.20
2023-04-22T03:03:03.304Z,3.90
2023-04-22T03:04:03.268Z,4.00
2023-04-22T03:05:03.152Z,4.50
2023-04-22T03:06:03.067Z,4.00
2023-04-22T03:07:03.105Z,4.10
2023-04-22T03:08:03.050Z,4.40
2023-04-22T03:09:03.091Z,4.20
2023-04-22T03:10:03.050Z,4.00
2023-04-22T03:11:03.033Z,4.10
2023-04-22T03:12:03.029Z,4.10
2023-04-22T03:13:03.018Z,4.20
2023-04-22T03:14:02.968Z,4.10
2023-04-22T03:15:02.996Z,4.20
2023-04-22T03:16:02.968Z,4.20
2023-04-22T03:17:03.103Z,4.40
2023-04-22T03:18:02.990Z,4.30
2023-04-22T03:19:02.936Z,4.40
2023-04-22T03:20:02.937Z,4.60
2023-04-22T03:21:02.913Z,4.30
2023-04-22T03:22:02.898Z,4.50
2023-04-22T03:23:02.879Z,4.40
2023-04-22T03:24:02.838Z,4.00
2023-04-22T03:25:02.864Z,5.20
2023-04-22T03:26:02.849Z,4.90
2023-04-22T03:27:02.838Z,5.30
2023-04-22T03:28:02.786Z,5.00
2023-04-22T03:29:02.818Z,5.80
2023-04-22T03:30:02.774Z,7.00
2023-04-22T03:31:02.790Z,7.40
2023-04-22T03:32:02.802Z,6.30
2023-04-22T03:33:02.758Z,5.80
2023-04-22T03:34:02.719Z,5.50
2023-04-22T03:35:02.728Z,5.20
2023-04-22T03:36:02.696Z,5.10
2023-04-22T03:37:02.690Z,5.80
2023-04-22T03:38:02.665Z,5.20
2023-04-22T03:39:02.670Z,4.70
2023-04-22T03:40:02.658Z,3.90
2023-04-22T03:41:02.649Z,4.00
2023-04-22T03:42:02.637Z,3.80
2023-04-22T03:43:02.614Z,3.50
2023-04-22T03:44:02.572Z,3.50
2023-04-22T03:45:02.623Z,3.40
2023-04-22T03:46:02.592Z,3.20
2023-04-22T03:47:02.565Z,3.40
2023-04-22T03:48:02.545Z,3.20
2023-04-22T03:49:02.581Z,3.20
2023-04-22T03:50:02.542Z,3.40
2023-04-22T03:51:02.525Z,3.30
2023-04-22T03:52:02.497Z,3.70
2023-04-22T03:53:02.502Z,3.80
2023-04-22T03:54:02.462Z,4.60
2023-04-22T03:55:02.471Z,5.20
2023-04-22T03:56:02.427Z,5.10
2023-04-22T03:57:02.436Z,4.80
2023-04-22T03:58:02.431Z,5.20
2023-04-22T03:59:02.452Z,5.00
2023-04-22T04:00:02.374Z,6.20
2023-04-22T04:01:02.417Z,6.00
2023-04-22T04:02:02.445Z,6.80
2023-04-22T04:03:02.532Z,6.60
2023-04-22T04:04:02.616Z,6.20
2023-04-22T04:05:02.664Z,6.30
2023-04-22T04:06:02.399Z,6.00
2023-04-22T04:07:02.304Z,6.70
2023-04-22T04:08:02.264Z,6.70
2023-04-22T04:09:02.318Z,5.30
2023-04-22T04:10:02.236Z,6.20
2023-04-22T04:11:02.285Z,5.30
2023-04-22T04:12:02.219Z,5.70
2023-04-22T04:13:02.223Z,6.00
2023-04-22T04:14:02.199Z,5.50
2023-04-22T04:15:02.198Z,5.80
2023-04-22T04:16:02.241Z,5.90
2023-04-22T04:17:02.139Z,6.20
2023-04-22T04:18:02.221Z,6.70
2023-04-22T04:19:02.121Z,7.00
2023-04-22T04:20:02.138Z,6.70
2023-04-22T04:21:02.123Z,6.40
2023-04-22T04:22:02.276Z,6.80
2023-04-22T04:23:02.066Z,7.70
2023-04-22T04:24:02.092Z,7.80
2023-04-22T04:25:02.040Z,7.80
2023-04-22T04:26:02.074Z,8.50
2023-04-22T04:27:02.017Z,8.50
2023-04-22T04:28:02.040Z,8.50
2023-04-22T04:29:02.086Z,8.80
2023-04-22T04:30:01.998Z,8.30
2023-04-22T04:31:02.026Z,7.40
2023-04-22T04:32:02.012Z,8.50
2023-04-22T04:33:02.000Z,7.80
2023-04-22T04:34:01.969Z,7.50
2023-04-22T04:35:01.928Z,7.00
2023-04-22T04:36:01.913Z,7.40
2023-04-22T04:37:01.910Z,7.00
2023-04-22T04:38:01.903Z,6.90
2023-04-22T04:39:01.886Z,6.80
2023-04-22T04:40:01.879Z,6.00
2023-04-22T04:41:01.825Z,5.60
2023-04-22T04:42:01.845Z,5.70
2023-04-22T04:43:01.817Z,6.10
2023-04-22T04:44:01.850Z,6.30
2023-04-22T04:45:01.790Z,6.20
2023-04-22T04:46:01.828Z,5.90
2023-04-22T04:47:01.804Z,5.60
2023-04-22T04:48:01.837Z,6.70
2023-04-22T04:49:01.777Z,5.60
2023-04-22T04:50:01.759Z,5.20
2023-04-22T04:51:01.692Z,5.20
2023-04-22T04:52:02.014Z,4.70
2023-04-22T04:53:01.697Z,5.20
2023-04-22T04:54:01.745Z,6.40
2023-04-22T04:55:01.699Z,6.10
2023-04-22T04:56:01.683Z,6.50
2023-04-22T04:57:01.621Z,6.10
2023-04-22T04:58:01.634Z,6.80
2023-04-22T04:59:01.605Z,7.60
2023-04-22T05:00:01.640Z,7.60
2023-04-22T05:01:01.576Z,7.30
2023-04-22T05:02:01.619Z,7.30
2023-04-22T05:03:01.720Z,6.90
2023-04-22T05:04:01.765Z,8.40
2023-04-22T05:05:01.641Z,6.20
2023-04-22T05:06:01.543Z,6.70
2023-04-22T05:07:01.495Z,6.40
2023-04-22T05:08:01.547Z,5.30
2023-04-22T05:09:01.489Z,5.00
2023-04-22T05:10:01.524Z,5.20
2023-04-22T05:11:01.445Z,5.80
2023-04-22T05:12:01.470Z,5.20
2023-04-22T05:13:03.996Z,5.30
2023-04-22T05:14:01.451Z,5.70
2023-04-22T05:15:01.428Z,5.60
2023-04-22T05:16:01.473Z,7.50
2023-04-22T05:17:01.428Z,6.00
2023-04-22T05:18:01.441Z,6.70
2023-04-22T05:19:01.367Z,6.10
2023-04-22T05:20:01.356Z,6.60
2023-04-22T05:21:01.382Z,6.40
2023-04-22T05:22:01.331Z,6.80
2023-04-22T05:23:01.304Z,6.60
2023-04-22T05:24:01.316Z,6.50
2023-04-22T05:25:01.310Z,6.50
2023-04-22T05:26:01.273Z,6.80
2023-04-22T05:27:01.238Z,7.10
2023-04-22T05:28:01.328Z,6.90
2023-04-22T05:29:01.222Z,6.60
2023-04-22T05:30:01.265Z,6.90
2023-04-22T05:31:01.179Z,6.90
2023-04-22T05:32:01.323Z,6.80
2023-04-22T05:33:01.277Z,6.90
2023-04-22T05:34:01.217Z,7.20
2023-04-22T05:35:01.150Z,7.60
2023-04-22T05:36:01.148Z,7.40
2023-04-22T05:37:01.111Z,8.00
2023-04-22T05:38:01.139Z,7.90
2023-04-22T05:39:01.106Z,8.40
2023-04-22T05:40:01.112Z,8.50
2023-04-22T05:41:01.063Z,9.30
2023-04-22T05:42:01.057Z,10.90
2023-04-22T05:43:01.028Z,10.30
2023-04-22T05:44:01.100Z,10.20
2023-04-22T05:45:01.020Z,10.70
2023-04-22T05:46:01.079Z,10.60
2023-04-22T05:47:00.983Z,10.90
2023-04-22T05:48:01.049Z,9.40
2023-04-22T05:49:00.996Z,10.40
2023-04-22T05:50:00.979Z,10.90
2023-04-22T05:51:00.951Z,11.60
2023-04-22T05:52:00.951Z,13.00
2023-04-22T05:53:00.961Z,12.90
2023-04-22T05:54:00.909Z,13.20
2023-04-22T05:55:00.879Z,13.90
2023-04-22T05:56:00.897Z,14.90
2023-04-22T05:57:00.857Z,13.90
2023-04-22T05:58:00.890Z,13.80
2023-04-22T05:59:00.812Z,13.50
2023-04-22T06:00:00.851Z,13.80
2023-04-22T06:01:00.814Z,14.00
2023-04-22T06:02:00.911Z,13.70
2023-04-22T06:03:00.976Z,13.00
2023-04-22T06:04:01.036Z,13.00
2023-04-22T06:05:01.061Z,12.90
2023-04-22T06:06:00.968Z,12.90
2023-04-22T06:07:00.715Z,12.90
2023-04-22T06:08:00.796Z,11.80
2023-04-22T06:09:00.724Z,11.90
2023-04-22T06:10:05.019Z,11.80
2023-04-22T06:11:00.665Z,12.60
2023-04-22T06:12:00.687Z,11.00
2023-04-22T06:13:00.641Z,11.00
2023-04-22T06:14:00.659Z,10.90
2023-04-22T06:15:00.659Z,11.20
2023-04-22T06:16:00.652Z,11.60
2023-04-22T06:17:00.607Z,12.40
2023-04-22T06:18:00.661Z,12.30
2023-04-22T06:19:00.575Z,12.40
2023-04-22T06:20:00.603Z,11.20
2023-04-22T06:21:00.559Z,11.30
2023-04-22T06:22:00.553Z,11.40
2023-04-22T06:23:00.515Z,11.10
2023-04-22T06:24:00.517Z,12.20
2023-04-22T06:25:00.526Z,11.70
2023-04-22T06:26:00.500Z,11.90
2023-04-22T06:27:00.457Z,11.80
2023-04-22T06:28:00.473Z,11.80
2023-04-22T06:29:00.443Z,11.60
2023-04-22T06:30:00.437Z,12.30
2023-04-22T06:31:00.433Z,11.30
2023-04-22T06:32:00.427Z,12.30
2023-04-22T06:33:00.411Z,12.20
2023-04-22T06:34:00.420Z,11.80
2023-04-22T06:35:00.357Z,11.50
2023-04-22T06:36:00.373Z,11.90
2023-04-22T06:37:00.325Z,12.60
2023-04-22T06:38:00.338Z,12.30
2023-04-22T06:39:00.321Z,11.70
2023-04-22T06:40:00.321Z,11.70
2023-04-22T06:41:00.279Z,11.80
2023-04-22T06:42:00.278Z,12.00
2023-04-22T06:43:00.242Z,11.40
2023-04-22T06:44:00.284Z,12.10
2023-04-22T06:45:00.214Z,12.00
2023-04-22T06:46:00.222Z,12.30
2023-04-22T06:47:00.225Z,12.80
2023-04-22T06:48:00.250Z,11.80
2023-04-22T06:49:00.168Z,12.10
2023-04-22T06:50:00.215Z,11.30
2023-04-22T06:51:00.153Z,11.80
2023-04-22T06:52:00.192Z,12.40
2023-04-22T06:53:00.126Z,12.30
2023-04-22T06:54:00.130Z,11.70
2023-04-22T06:55:00.146Z,12.10
2023-04-22T06:56:00.143Z,12.00
2023-04-22T06:57:00.065Z,12.30
2023-04-22T06:58:00.119Z,12.40
2023-04-22T06:59:00.039Z,11.80
2023-04-22T07:00:00.070Z,11.60
2023-04-22T07:00:59.998Z,11.50
2023-04-22T07:02:00.029Z,11.10
2023-04-22T07:03:00.043Z,11.80
2023-04-22T07:04:00.031Z,11.00
2023-04-22T07:04:59.953Z,10.60
2023-04-22T07:05:59.996Z,9.60
2023-04-22T07:06:59.946Z,9.30
2023-04-22T07:07:59.971Z,9.30
2023-04-22T07:08:59.971Z,13.10
2023-04-22T07:09:59.910Z,13.40
2023-04-22T07:10:59.918Z,11.70
2023-04-22T07:11:59.881Z,8.30
2023-04-22T07:12:59.843Z,8.40
2023-04-22T07:13:59.880Z,8.20
2023-04-22T07:14:59.839Z,7.70
2023-04-22T07:15:59.880Z,8.20
2023-04-22T07:16:59.785Z,7.50
2023-04-22T07:17:59.858Z,7.90
2023-04-22T07:18:59.816Z,6.90
2023-04-22T07:19:59.820Z,6.60
2023-04-22T07:20:59.764Z,6.70
2023-04-22T07:21:59.755Z,7.00
2023-04-22T07:22:59.728Z,6.70
2023-04-22T07:23:59.733Z,6.60
2023-04-22T07:24:59.705Z,7.10
2023-04-22T07:25:59.693Z,6.70
2023-04-22T07:26:59.657Z,6.40
2023-04-22T07:27:59.833Z,6.40
2023-04-22T07:28:59.650Z,6.90
2023-04-22T07:29:59.662Z,7.30
2023-04-22T07:30:59.672Z,6.40
2023-04-22T07:31:59.666Z,6.70
2023-04-22T07:32:59.700Z,5.90
2023-04-22T07:33:59.603Z,6.30
2023-04-22T07:34:59.602Z,5.70
2023-04-22T07:35:59.589Z,5.70
2023-04-22T07:36:59.574Z,5.10
2023-04-22T07:37:59.536Z,5.30
2023-04-22T07:38:59.535Z,4.90
2023-04-22T07:39:59.492Z,5.10
2023-04-22T07:40:59.519Z,4.70
2023-04-22T07:41:59.550Z,4.80
2023-04-22T07:42:59.572Z,4.70
2023-04-22T07:43:59.481Z,4.60
2023-04-22T07:44:59.471Z,3.80
2023-04-22T07:45:59.498Z,3.70
2023-04-22T07:46:59.473Z,4.00
2023-04-22T07:47:59.457Z,3.90
2023-04-22T07:48:59.408Z,4.10
2023-04-22T07:49:59.404Z,3.90
2023-04-22T07:50:59.388Z,4.20
2023-04-22T07:51:59.349Z,3.90
2023-04-22T07:52:59.424Z,3.50
2023-04-22T07:53:59.328Z,3.70
2023-04-22T07:54:59.360Z,3.80
2023-04-22T07:56:01.011Z,3.60
2023-04-22T07:56:59.290Z,3.70
2023-04-22T07:57:59.253Z,3.20
2023-04-22T07:58:59.282Z,3.80
2023-04-22T07:59:59.248Z,3.80
2023-04-22T08:00:59.288Z,3.60
2023-04-22T08:01:59.212Z,3.50
2023-04-22T08:02:59.291Z,3.60
2023-04-22T08:03:59.456Z,3.40
2023-04-22T08:04:59.200Z,3.80
2023-04-22T08:05:59.154Z,3.60
2023-04-22T08:06:59.721Z,3.30
2023-04-22T08:07:59.115Z,3.40
2023-04-22T08:08:59.184Z,3.60
2023-04-22T08:09:59.101Z,3.60
2023-04-22T08:10:59.096Z,3.30
2023-04-22T08:11:59.083Z,3.70
2023-04-22T08:12:59.081Z,3.90
2023-04-22T08:13:59.055Z,3.30
2023-04-22T08:14:59.068Z,3.90
2023-04-22T08:15:59.085Z,3.80
2023-04-22T08:16:59.030Z,3.80
2023-04-22T08:17:59.060Z,4.60
2023-04-22T08:18:59.034Z,3.90
2023-04-22T08:19:58.979Z,3.60
2023-04-22T08:20:58.986Z,3.70
2023-04-22T08:21:58.945Z,3.60
2023-04-22T08:22:58.954Z,3.80
2023-04-22T08:23:58.925Z,3.90
2023-04-22T08:24:58.954Z,3.30
2023-04-22T08:25:58.888Z,3.80
2023-04-22T08:26:58.913Z,3.70
2023-04-22T08:27:58.865Z,3.10
2023-04-22T08:28:58.870Z,3.40
2023-04-22T08:29:58.852Z,3.50
2023-04-22T08:30:58.862Z,3.50
2023-04-22T08:31:58.846Z,3.40
2023-04-22T08:32:58.888Z,3.60
2023-04-22T08:33:58.826Z,3.10
2023-04-22T08:35:04.342Z,3.60
2023-04-22T08:35:58.812Z,3.10
2023-04-22T08:36:58.750Z,3.40
2023-04-22T08:37:58.777Z,3.80
2023-04-22T08:38:58.733Z,3.40
2023-04-22T08:39:58.758Z,3.40
2023-04-22T08:40:58.703Z,3.40
2023-04-22T08:41:58.711Z,3.20
2023-04-22T08:42:58.689Z,3.10
2023-04-22T08:43:58.687Z,3.10
2023-04-22T08:44:58.639Z,3.00
2023-04-22T08:45:58.662Z,2.90
2023-04-22T08:46:59.163Z,3.00
2023-04-22T08:47:58.695Z,2.80
2023-04-22T08:48:58.608Z,3.40
2023-04-22T08:49:58.618Z,3.30
2023-04-22T08:50:58.574Z,3.30
2023-04-22T08:51:58.609Z,3.10
2023-04-22T08:52:58.551Z,3.40
2023-04-22T08:53:58.542Z,3.00
2023-04-22T08:54:58.507Z,3.00
2023-04-22T08:55:58.513Z,3.00
2023-04-22T08:56:58.491Z,3.10
2023-04-22T08:57:58.504Z,2.80
2023-04-22T08:58:58.465Z,2.80
2023-04-22T08:59:58.513Z,2.90
2023-04-22T09:00:58.428Z,3.10
2023-04-22T09:01:58.612Z,2.90
2023-04-22T09:02:58.480Z,3.00
2023-04-22T09:03:58.476Z,3.00
2023-04-22T09:04:58.370Z,3.30
2023-04-22T09:05:58.417Z,3.40
2023-04-22T09:06:58.362Z,3.00
2023-04-22T09:07:58.404Z,2.80
2023-04-22T09:08:58.327Z,2.60
2023-04-22T09:09:58.346Z,2.70
2023-04-22T09:10:58.319Z,2.80
2023-04-22T09:11:58.329Z,2.70
2023-04-22T09:12:58.277Z,2.90
2023-04-22T09:13:58.640Z,2.90
2023-04-22T09:14:58.241Z,3.10
2023-04-22T09:15:59.997Z,2.80
2023-04-22T09:16:58.231Z,3.60
2023-04-22T09:17:58.341Z,3.20
2023-04-22T09:18:58.212Z,3.00
2023-04-22T09:19:58.190Z,3.30
2023-04-22T09:20:58.173Z,2.60
2023-04-22T09:21:58.176Z,2.90
2023-04-22T09:22:58.160Z,2.80
2023-04-22T09:23:58.173Z,3.10
2023-04-22T09:24:58.114Z,2.70
2023-04-22T09:25:58.119Z,3.30
2023-04-22T09:26:58.075Z,2.90
2023-04-22T09:27:58.093Z,3.00
2023-04-22T09:28:58.084Z,2.60
2023-04-22T09:29:58.069Z,2.40
2023-04-22T09:30:58.026Z,2.80
2023-04-22T09:31:58.103Z,2.80
2023-04-22T09:32:58.028Z,3.30
2023-04-22T09:33:58.054Z,3.20
2023-04-22T09:34:57.992Z,2.90
2023-04-22T09:35:58.032Z,2.90
2023-04-22T09:36:57.955Z,2.90
2023-04-22T09:37:57.974Z,2.60
2023-04-22T09:38:57.955Z,2.60
2023-04-22T09:39:57.949Z,2.60
2023-04-22T09:40:57.915Z,2.60
2023-04-22T09:41:57.920Z,2.40
2023-04-22T09:42:57.908Z,2.00
2023-04-22T09:43:57.890Z,2.40
2023-04-22T09:44:58.995Z,2.10
2023-04-22T09:45:57.945Z,2.60
2023-04-22T09:46:57.855Z,2.60
2023-04-22T09:47:57.881Z,2.40
2023-04-22T09:48:57.804Z,2.30
2023-04-22T09:49:57.879Z,2.00
2023-04-22T09:50:57.785Z,2.40
2023-04-22T09:51:57.812Z,2.80
2023-04-22T09:52:57.751Z,2.70
2023-04-22T09:53:57.760Z,2.40
2023-04-22T09:54:57.740Z,3.10
2023-04-22T09:55:57.765Z,2.80
2023-04-22T09:56:57.701Z,3.00
2023-04-22T09:57:57.714Z,3.10
2023-04-22T09:58:57.688Z,3.10
2023-04-22T09:59:57.697Z,3.00
2023-04-22T10:00:57.686Z,3.10
2023-04-22T10:01:57.694Z,3.20
2023-04-22T10:02:57.636Z,3.20
2023-04-22T10:03:57.688Z,3.10
2023-04-22T10:04:57.603Z,3.60
2023-04-22T10:05:57.648Z,3.20
2023-04-22T10:06:57.576Z,3.20
2023-04-22T10:07:57.623Z,3.00
2023-04-22T10:08:57.581Z,2.90
2023-04-22T10:09:57.548Z,3.30
2023-04-22T10:10:57.522Z,3.50
2023-04-22T10:11:57.566Z,3.70
2023-04-22T10:12:57.552Z,2.70
2023-04-22T10:13:57.526Z,3.10
2023-04-22T10:14:57.465Z,3.00
2023-04-22T10:15:57.504Z,3.30
2023-04-22T10:16:57.493Z,3.40
2023-04-22T10:17:57.492Z,3.10
2023-04-22T10:18:57.450Z,3.20
2023-04-22T10:19:57.422Z,2.80
2023-04-22T10:20:57.393Z,2.80
2023-04-22T10:21:57.396Z,3.20
2023-04-22T10:22:57.387Z,2.90
2023-04-22T10:23:57.393Z,2.80
2023-04-22T10:24:57.333Z,2.50
2023-04-22T10:25:57.356Z,2.10
2023-04-22T10:26:57.368Z,2.20
2023-04-22T10:27:57.339Z,2.30
2023-04-22T10:28:57.298Z,2.20
2023-04-22T10:29:57.297Z,2.40
2023-04-22T10:30:57.292Z,2.40
2023-04-22T10:31:57.379Z,1.80
2023-04-22T10:32:57.244Z,1.70
2023-04-22T10:33:57.254Z,1.80
2023-04-22T10:34:57.234Z,1.60
2023-04-22T10:35:57.227Z,1.90
2023-04-22T10:36:57.341Z,2.40
2023-04-22T10:37:57.206Z,1.70
2023-04-22T10:38:57.152Z,2.00
2023-04-22T10:39:57.194Z,2.00
2023-04-22T10:40:57.153Z,1.80
2023-04-22T10:41:57.152Z,1.90
2023-04-22T10:42:57.099Z,2.10
2023-04-22T10:43:57.112Z,2.00
2023-04-22T10:44:57.063Z,1.90
2023-04-22T10:45:57.142Z,1.80
2023-04-22T10:46:57.167Z,2.10
2023-04-22T10:47:57.106Z,1.70
2023-04-22T10:48:57.016Z,2.00
2023-04-22T10:49:57.040Z,1.80
2023-04-22T10:50:56.998Z,1.80
2023-04-22T10:51:57.028Z,1.90
2023-04-22T10:52:56.982Z,2.00
2023-04-22T10:53:56.998Z,1.80
2023-04-22T10:54:56.993Z,2.20
2023-04-22T10:55:56.960Z,1.80
2023-04-22T10:56:58.406Z,1.70
2023-04-22T10:57:56.938Z,1.50
2023-04-22T10:58:56.959Z,1.80
2023-04-22T10:59:56.927Z,1.80
2023-04-22T11:00:56.891Z,1.80
2023-04-22T11:01:56.929Z,1.80
2023-04-22T11:02:56.927Z,2.00
2023-04-22T11:03:56.953Z,2.10
2023-04-22T11:04:56.836Z,1.70
2023-04-22T11:05:56.847Z,1.80
2023-04-22T11:06:56.835Z,1.80
2023-04-22T11:07:56.801Z,1.50
2023-04-22T11:08:56.804Z,2.00
2023-04-22T11:09:56.773Z,2.00
2023-04-22T11:10:56.775Z,1.80
2023-04-22T11:11:56.761Z,1.90
2023-04-22T11:12:56.718Z,1.90
2023-04-22T11:13:56.773Z,1.90
2023-04-22T11:14:56.716Z,2.00
2023-04-22T11:15:56.741Z,1.90
2023-04-22T11:16:56.672Z,1.80
2023-04-22T11:17:56.772Z,1.80
2023-04-22T11:18:56.615Z,2.00
2023-04-22T11:19:56.648Z,1.90
2023-04-22T11:20:56.602Z,1.80
2023-04-22T11:21:56.634Z,1.90
2023-04-22T11:22:56.593Z,1.80
2023-04-22T11:23:56.580Z,2.00
2023-04-22T11:24:56.569Z,1.80
2023-04-22T11:25:56.576Z,1.40
2023-04-22T11:26:56.551Z,1.70
2023-04-22T11:27:56.559Z,1.80
2023-04-22T11:28:56.509Z,1.70
2023-04-22T11:29:56.525Z,1.60
2023-04-22T11:30:56.527Z,1.60
2023-04-22T11:31:56.576Z,1.70
2023-04-22T11:32:56.451Z,1.50
2023-04-22T11:33:56.491Z,1.60
2023-04-22T11:34:56.408Z,1.80
2023-04-22T11:35:56.430Z,1.90
2023-04-22T11:36:56.398Z,1.40
2023-04-22T11:37:56.401Z,1.30
2023-04-22T11:38:56.419Z,1.80
2023-04-22T11:40:17.449Z,1.30
2023-04-22T11:40:56.346Z,1.40
2023-04-22T11:41:56.344Z,1.80
2023-04-22T11:42:56.363Z,1.40
2023-04-22T11:43:56.334Z,1.40
2023-04-22T11:44:56.311Z,1.70
2023-04-22T11:45:56.384Z,1.70
2023-04-22T11:46:56.269Z,1.70
2023-04-22T11:47:56.346Z,1.40
2023-04-22T11:48:56.238Z,1.60
2023-04-22T11:49:56.280Z,1.40
2023-04-22T11:50:56.214Z,1.80
2023-04-22T11:51:56.260Z,1.70
2023-04-22T11:52:56.183Z,1.50
2023-04-22T11:53:56.198Z,1.40
2023-04-22T11:54:56.170Z,2.20
2023-04-22T11:55:56.154Z,1.50
2023-04-22T11:56:56.138Z,1.80
2023-04-22T11:57:56.158Z,1.60
2023-04-22T11:58:56.109Z,1.90
2023-04-22T11:59:56.125Z,1.70
2023-04-22T12:00:56.081Z,1.80
2023-04-22T12:01:56.116Z,2.00
2023-04-22T12:02:56.165Z,1.70
2023-04-22T12:03:56.180Z,1.60
2023-04-22T12:04:56.091Z,1.30
2023-04-22T12:05:56.058Z,1.40
2023-04-22T12:06:56.005Z,1.50
2023-04-22T12:07:56.041Z,1.70
2023-04-22T12:08:55.983Z,1.30
2023-04-22T12:09:56.036Z,1.20
2023-04-22T12:10:55.957Z,1.90
2023-04-22T12:11:55.957Z,1.50
2023-04-22T12:12:55.952Z,1.60
2023-04-22T12:13:55.957Z,2.00
2023-04-22T12:14:55.904Z,1.80
2023-04-22T12:15:55.914Z,2.70
2023-04-22T12:16:55.947Z,2.50
2023-04-22T12:17:55.971Z,1.80
2023-04-22T12:18:55.851Z,1.40
2023-04-22T12:19:55.865Z,1.50
2023-04-22T12:20:55.855Z,1.60
2023-04-22T12:21:55.893Z,1.90
2023-04-22T12:22:55.793Z,2.90
2023-04-22T12:23:55.801Z,2.40
2023-04-22T12:24:55.795Z,2.10
2023-04-22T12:25:55.830Z,2.40
2023-04-22T12:26:55.727Z,1.90
2023-04-22T12:27:55.750Z,1.90
2023-04-22T12:28:55.713Z,1.50
2023-04-22T12:29:55.738Z,1.90
2023-04-22T12:30:55.721Z,1.80
2023-04-22T12:31:55.685Z,1.50
2023-04-22T12:32:55.692Z,1.50
2023-04-22T12:33:55.767Z,1.50
2023-04-22T12:34:55.671Z,1.50
2023-04-22T12:35:55.653Z,1.50
2023-04-22T12:36:55.604Z,1.60
2023-04-22T12:37:55.665Z,1.50
2023-04-22T12:38:55.704Z,1.60
2023-04-22T12:39:55.632Z,1.80
2023-04-22T12:40:55.553Z,1.60
2023-04-22T12:41:55.572Z,1.50
2023-04-22T12:42:55.524Z,1.70
2023-04-22T12:43:55.561Z,1.70
2023-04-22T12:44:55.531Z,1.90
2023-04-22T12:45:55.525Z,1.50
2023-04-22T12:46:55.511Z,1.70
2023-04-22T12:47:55.552Z,1.50
2023-04-22T12:48:55.548Z,1.70
2023-04-22T12:49:55.459Z,1.70
2023-04-22T12:50:55.478Z,1.70
2023-04-22T12:51:55.454Z,1.20
2023-04-22T12:52:55.437Z,1.20
2023-04-22T12:53:55.374Z,1.20
2023-04-22T12:54:55.393Z,1.20
2023-04-22T12:55:55.368Z,1.30
2023-04-22T12:56:55.488Z,1.10
2023-04-22T12:57:55.330Z,1.30
2023-04-22T12:58:55.366Z,1.10
2023-04-22T12:59:55.340Z,1.40
2023-04-22T13:00:55.337Z,1.20
2023-04-22T13:01:55.325Z,1.30
2023-04-22T13:02:55.393Z,1.30
2023-04-22T13:03:55.350Z,1.20
2023-04-22T13:04:55.274Z,1.20
2023-04-22T13:05:55.238Z,1.20
2023-04-22T13:06:55.318Z,1.20
2023-04-22T13:08:55.220Z,1.10
2023-04-22T13:09:55.211Z,1.20
2023-04-22T13:10:55.192Z,1.20
2023-04-22T13:11:55.142Z,1.30
2023-04-22T13:12:58.569Z,1.20
2023-04-22T13:13:55.157Z,1.20
2023-04-22T13:14:55.198Z,1.20
2023-04-22T13:15:55.136Z,1.10